Patricios, Argentina
Current Conditions -  °F | °C
As of 2:00 PM on Saturday 25 Oct 2014 (Local Time) from SAEZ Reporting Station
Scattered Clouds Scattered Clouds  
Wind Chill: 31°   Ceiling: Unl
Heat Index: 31°   Visibility: 6mi
Dew Point: 16°   Wind: 9mph
Humidity: 40%   Direction: 70°ENE
Pressure: 29.91"   Gusts: NA
Location:  35.45°S, 60.71°W
Report Text: SAEZ 251700Z 07008KT 030V100 9999 SCT049 31/16 Q1013
Loading
Personal Weather Stations






























Interactive Weather Map
Tropical Storm Tracking
New forecast layout! Learn more

10-Day Weather Forecast

Advertisements
Track Severe Weather on mobile